Time;durP1;ratioP1;P1;durP2;ratioP2;P2;SDS_P1;SDS_P2;PMS_P1;PMS_P2;Temp;Humidity;BMP_temperature;BMP_pressure;BME280_temperature;BME280_humidity;BME280_pressure;Samples;Min_cycle;Max_cycle;Signal;HPM_P1;HPM_P2
2021/08/13 00:00:19;;;;;;;11.30;7.80;;;;;;;21.25;52.39;101039.45;117540;1180;22964;-82
2021/08/13 00:02:47;;;;;;;11.90;7.70;;;;;;;21.23;52.46;101039.02;117541;1185;22090;-82
2021/08/13 00:05:15;;;;;;;14.00;8.70;;;;;;;21.21;52.48;101042.83;117533;1185;21869;-82
2021/08/13 00:07:43;;;;;;;13.30;7.10;;;;;;;21.20;52.49;101040.56;117640;1182;23704;-82
2021/08/13 00:10:11;;;;;;;12.30;8.10;;;;;;;21.19;52.57;101039.41;117652;1185;21867;-83
2021/08/13 00:12:58;;;;;;;13.50;8.20;;;;;;;21.18;52.61;101038.91;117480;1185;21855;-82
2021/08/13 00:15:26;;;;;;;13.30;8.10;;;;;;;21.16;52.63;101039.16;117556;1182;21882;-82
2021/08/13 00:18:14;;;;;;;12.70;7.50;;;;;;;21.12;52.74;101042.73;117268;1189;21873;-82
2021/08/13 00:20:42;;;;;;;10.90;6.90;;;;;;;21.11;52.74;101044.20;117368;1182;21886;-82
2021/08/13 00:23:10;;;;;;;11.80;7.00;;;;;;;21.09;52.82;101045.72;117581;1184;21855;-82
2021/08/13 00:25:39;;;;;;;11.20;6.80;;;;;;;21.06;52.81;101049.05;117562;1182;21857;-82
2021/08/13 00:28:06;;;;;;;11.70;6.70;;;;;;;21.04;52.85;101049.33;117502;1185;22171;-82
2021/08/13 00:30:34;;;;;;;9.60;6.50;;;;;;;21.04;52.91;101047.22;117556;1185;21855;-82
2021/08/13 00:33:03;;;;;;;8.40;6.30;;;;;;;21.04;52.89;101046.51;117536;1183;22166;-82
2021/08/13 00:35:31;;;;;;;12.20;5.80;;;;;;;21.03;52.90;101045.09;117413;1185;21857;-82
2021/08/13 00:38:00;;;;;;;8.70;5.90;;;;;;;21.01;52.81;101049.66;117369;1186;23452;-82
2021/08/13 00:40:28;;;;;;;9.30;6.10;;;;;;;20.97;52.97;101047.86;117513;1185;22208;-82
2021/08/13 00:42:56;;;;;;;12.00;6.40;;;;;;;20.94;52.99;101046.22;117566;1182;21867;-82
2021/08/13 00:45:25;;;;;;;8.70;5.70;;;;;;;20.92;52.98;101043.65;117544;1182;23573;-82
2021/08/13 00:47:53;;;;;;;10.10;6.10;;;;;;;20.89;53.02;101043.77;117358;1185;21868;-82
2021/08/13 00:50:21;;;;;;;8.70;6.50;;;;;;;20.88;53.06;101046.14;117574;1185;21850;-82
2021/08/13 00:52:50;;;;;;;11.30;6.30;;;;;;;20.86;53.07;101043.02;117468;1180;22918;-82
2021/08/13 00:55:19;;;;;;;8.90;5.80;;;;;;;20.84;53.19;101041.66;117466;1185;23355;-82
2021/08/13 00:57:57;;;;;;;11.00;6.30;;;;;;;20.83;53.27;101040.81;117524;1182;23634;-82
2021/08/13 01:00:25;;;;;;;8.50;6.00;;;;;;;20.83;53.20;101041.70;117386;1179;23456;-82
2021/08/13 01:02:53;;;;;;;8.30;6.10;;;;;;;20.82;53.16;101039.06;117435;1182;22911;-82
2021/08/13 01:05:21;;;;;;;10.50;6.30;;;;;;;20.80;53.14;101038.27;117614;1179;21871;-82
2021/08/13 01:07:49;;;;;;;9.00;6.40;;;;;;;20.82;53.17;101038.92;117558;1182;23936;-82
2021/08/13 01:10:19;;;;;;;12.20;6.90;;;;;;;20.89;53.02;101042.89;117337;1182;23564;-83
2021/08/13 01:13:11;;;;;;;9.40;6.40;;;;;;;20.92;52.99;101045.05;117207;1188;23551;-82
2021/08/13 01:15:43;;;;;;;12.40;7.40;;;;;;;20.93;52.90;101041.26;117462;1185;21873;-81
2021/08/13 01:18:14;;;;;;;12.00;7.70;;;;;;;20.89;53.02;101043.39;117558;1182;21863;-82
2021/08/13 01:21:08;;;;;;;10.10;7.20;;;;;;;20.78;53.23;101043.89;117472;1185;23435;-81
2021/08/13 01:23:45;;;;;;;13.00;7.50;;;;;;;20.77;53.33;101040.55;117513;1185;21855;-81
2021/08/13 01:26:13;;;;;;;13.80;7.30;;;;;;;20.81;53.29;101038.60;117558;1182;21857;-81
2021/08/13 01:28:58;;;;;;;11.30;6.80;;;;;;;20.82;53.20;101038.04;117490;1185;21856;-81
2021/08/13 01:31:57;;;;;;;10.40;6.70;;;;;;;20.78;53.24;101040.14;117556;1182;23550;-82
2021/08/13 01:34:26;;;;;;;11.00;6.00;;;;;;;20.73;53.31;101046.39;117611;1182;22097;-82
2021/08/13 01:37:12;;;;;;;8.40;5.80;;;;;;;20.71;53.45;101045.27;117493;1178;23589;-82
2021/08/13 01:39:50;;;;;;;8.00;4.90;;;;;;;20.65;53.62;101044.29;117551;1185;22142;-83
2021/08/13 01:42:18;;;;;;;11.80;5.60;;;;;;;20.58;53.79;101049.57;117277;1186;23288;-83
2021/08/13 01:44:47;;;;;;;10.20;5.90;;;;;;;20.55;53.88;101055.38;117537;1185;23537;-82
2021/08/13 01:47:15;;;;;;;7.80;5.40;;;;;;;20.51;53.93;101061.61;117351;1186;23563;-83
2021/08/13 01:49:44;;;;;;;9.40;5.30;;;;;;;20.48;54.02;101066.93;117213;1185;23807;-82
2021/08/13 01:52:33;;;;;;;7.70;4.80;;;;;;;20.52;53.98;101069.79;117346;1186;23541;-82
2021/08/13 01:55:05;;;;;;;7.40;4.70;;;;;;;20.52;53.91;101070.50;117518;1182;23538;-82
2021/08/13 01:57:34;;;;;;;7.30;4.60;;;;;;;20.45;54.09;101074.02;117430;1185;22896;-82
2021/08/13 02:00:03;;;;;;;8.90;5.20;;;;;;;20.49;54.09;101076.69;117529;1182;22903;-82
2021/08/13 02:02:33;;;;;;;8.90;5.30;;;;;;;20.51;54.07;101077.14;117459;1183;23536;-82
2021/08/13 02:05:03;;;;;;;8.90;5.50;;;;;;;20.51;54.04;101080.15;117477;1182;21866;-82
2021/08/13 02:07:51;;;;;;;10.60;5.10;;;;;;;20.48;54.09;101081.17;117529;1185;21844;-82
2021/08/13 02:10:19;;;;;;;7.80;5.10;;;;;;;20.45;54.14;101080.79;117357;1186;22960;-83
2021/08/13 02:12:48;;;;;;;8.40;5.00;;;;;;;20.44;54.19;101083.33;117326;1185;23538;-83
2021/08/13 02:15:19;;;;;;;10.40;5.00;;;;;;;20.41;54.24;101084.88;117412;1183;23537;-82
2021/08/13 02:17:57;;;;;;;9.90;5.50;;;;;;;20.39;54.33;101089.23;117343;1185;23538;-82
2021/08/13 02:20:28;;;;;;;8.60;5.70;;;;;;;20.37;54.31;101093.03;117437;1186;23630;-81
2021/08/13 02:22:57;;;;;;;10.80;5.30;;;;;;;20.35;54.45;101092.58;117401;1182;22929;-82
2021/08/13 02:25:27;;;;;;;8.40;4.70;;;;;;;20.24;54.78;101097.70;117522;1185;22181;-82
2021/08/13 02:27:55;;;;;;;9.90;5.00;;;;;;;20.16;54.96;101097.64;117364;1186;21875;-82
2021/08/13 02:30:43;;;;;;;8.10;5.10;;;;;;;20.17;54.96;101097.27;117391;1186;21856;-83
2021/08/13 02:33:11;;;;;;;7.00;5.00;;;;;;;20.12;55.07;101097.08;117417;1186;21859;-82
2021/08/13 02:35:43;;;;;;;7.80;5.30;;;;;;;20.12;55.07;101101.02;117595;1182;23652;-83
2021/08/13 02:38:23;;;;;;;10.60;6.00;;;;;;;20.17;55.03;101101.36;117387;1186;21857;-82
2021/08/13 02:40:58;;;;;;;12.00;5.40;;;;;;;20.21;54.90;101101.71;117563;1185;23996;-82
2021/08/13 02:43:37;;;;;;;18.30;7.20;;;;;;;20.21;54.84;101101.52;117588;1182;21865;-82
2021/08/13 02:46:05;;;;;;;10.60;5.50;;;;;;;20.20;54.92;101101.58;117318;1186;23635;-82
2021/08/13 02:48:35;;;;;;;12.90;5.90;;;;;;;20.19;54.99;101101.45;117361;1185;23541;-82
2021/08/13 02:51:04;;;;;;;9.60;5.40;;;;;;;20.18;54.99;101100.77;117514;1185;21895;-82
2021/08/13 02:53:41;;;;;;;9.30;5.90;;;;;;;20.16;55.03;101102.27;117542;1185;23583;-82
2021/08/13 02:56:10;;;;;;;10.10;5.50;;;;;;;20.15;55.08;101101.95;117547;1179;21863;-83
2021/08/13 02:58:42;;;;;;;8.70;5.40;;;;;;;20.13;55.14;101105.97;117241;1186;23433;-82
2021/08/13 03:01:12;;;;;;;8.80;5.50;;;;;;;20.12;55.22;101109.40;117369;1182;23535;-82
2021/08/13 03:03:41;;;;;;;9.60;5.80;;;;;;;20.08;55.25;101108.16;117354;1185;21950;-82
2021/08/13 03:06:12;;;;;;;9.90;5.80;;;;;;;19.95;55.64;101111.14;117606;1185;22267;-82
2021/08/13 03:08:41;;;;;;;8.30;5.40;;;;;;;19.94;55.76;101116.18;117528;1182;23551;-82
2021/08/13 03:11:10;;;;;;;8.90;5.30;;;;;;;19.94;55.80;101117.62;117363;1186;21871;-82
2021/08/13 03:13:58;;;;;;;8.10;5.60;;;;;;;19.93;55.93;101121.20;117528;1185;21880;-82
2021/08/13 03:16:47;;;;;;;9.90;5.10;;;;;;;19.92;55.93;101122.84;117304;1186;21877;-82
2021/08/13 03:19:15;;;;;;;9.40;6.00;;;;;;;19.93;56.00;101122.09;117285;1186;22862;-82
2021/08/13 03:21:44;;;;;;;10.50;6.50;;;;;;;19.95;55.99;101124.70;117401;1182;23538;-82
2021/08/13 03:24:16;;;;;;;11.20;5.70;;;;;;;19.98;56.10;101124.36;117387;1179;21858;-82
2021/08/13 03:26:44;;;;;;;8.70;5.80;;;;;;;20.03;55.99;101127.77;117460;1183;22191;-82
2021/08/13 03:29:12;;;;;;;8.50;5.50;;;;;;;20.05;55.99;101128.55;117238;1187;23046;-82
2021/08/13 03:31:43;;;;;;;7.30;5.30;;;;;;;20.08;55.94;101133.42;117561;1185;22283;-82
2021/08/13 03:34:15;;;;;;;8.70;5.60;;;;;;;20.11;55.99;101132.59;117525;1182;22750;-82
2021/08/13 03:36:44;;;;;;;12.30;5.40;;;;;;;20.15;55.99;101134.75;117597;1185;22899;-82
2021/08/13 03:39:12;;;;;;;10.20;5.30;;;;;;;20.18;56.02;101136.06;117542;1185;23548;-82
2021/08/13 03:41:41;;;;;;;9.50;4.90;;;;;;;20.22;56.01;101139.46;117552;1182;23630;-82
2021/08/13 03:44:09;;;;;;;15.40;5.90;;;;;;;20.25;56.01;101139.70;117328;1189;23535;-82
2021/08/13 03:46:37;;;;;;;10.00;6.10;;;;;;;20.30;56.01;101138.96;117609;1185;21857;-82
2021/08/13 03:49:06;;;;;;;11.00;5.10;;;;;;;20.33;56.04;101139.34;117562;1182;23455;-82
2021/08/13 03:51:57;;;;;;;7.60;5.00;;;;;;;20.38;56.09;101139.52;117484;1182;23560;-82
2021/08/13 03:54:26;;;;;;;9.70;5.10;;;;;;;20.44;56.05;101143.91;117606;1185;21866;-82
2021/08/13 03:56:58;;;;;;;9.00;5.00;;;;;;;20.48;56.00;101141.43;117494;1185;23566;-82
2021/08/13 03:59:26;;;;;;;10.00;5.80;;;;;;;20.55;55.94;101143.45;117575;1185;21879;-81
2021/08/13 04:01:54;;;;;;;7.10;5.20;;;;;;;20.64;55.83;101144.49;117592;1182;21857;-81
2021/08/13 04:04:22;;;;;;;9.20;5.20;;;;;;;20.70;55.76;101145.52;117582;1182;23306;-82
2021/08/13 04:07:11;;;;;;;8.30;5.10;;;;;;;20.77;55.70;101145.93;117628;1185;21865;-83
2021/08/13 04:09:40;;;;;;;8.60;4.90;;;;;;;20.84;55.65;101149.77;117590;1185;22176;-81
2021/08/13 04:12:14;;;;;;;9.30;5.30;;;;;;;20.91;55.64;101152.48;117527;1185;23552;-81
2021/08/13 04:14:42;;;;;;;9.80;6.00;;;;;;;20.97;55.61;101149.94;117564;1183;21883;-82
2021/08/13 04:17:12;;;;;;;8.10;5.00;;;;;;;21.04;55.40;101153.51;117554;1185;23631;-82
2021/08/13 04:20:00;;;;;;;8.60;5.10;;;;;;;21.14;55.29;101158.27;117532;1185;21871;-82
2021/08/13 04:22:30;;;;;;;9.80;5.50;;;;;;;21.23;55.12;101151.11;117538;1185;23570;-82
2021/08/13 04:24:58;;;;;;;10.60;5.40;;;;;;;21.32;54.95;101150.34;117383;1182;23563;-82
2021/08/13 04:27:27;;;;;;;10.50;5.40;;;;;;;21.40;54.88;101151.06;117420;1186;23781;-82
2021/08/13 04:29:55;;;;;;;9.80;5.60;;;;;;;21.50;54.89;101150.95;117552;1185;21924;-82
2021/08/13 04:32:23;;;;;;;13.80;5.80;;;;;;;21.60;54.76;101153.93;117542;1185;22301;-82
2021/08/13 04:34:52;;;;;;;9.30;5.10;;;;;;;21.68;54.49;101157.84;117708;1182;23675;-82
2021/08/13 04:37:20;;;;;;;9.70;5.00;;;;;;;21.79;54.24;101153.91;117568;1185;21928;-82
2021/08/13 04:39:48;;;;;;;9.40;5.40;;;;;;;21.87;54.12;101154.63;117539;1183;22349;-82
2021/08/13 04:42:16;;;;;;;14.80;5.40;;;;;;;21.93;53.92;101158.63;117518;1182;22308;-82
2021/08/13 04:44:45;;;;;;;9.20;5.00;;;;;;;22.02;53.74;101165.18;117547;1182;22483;-82
2021/08/13 04:47:34;;;;;;;9.20;5.20;;;;;;;22.12;53.67;101165.58;117544;1182;22928;-84
2021/08/13 04:50:04;;;;;;;10.50;5.10;;;;;;;22.23;53.38;101166.13;117557;1182;23672;-83
2021/08/13 04:52:48;;;;;;;9.40;5.60;;;;;;;22.35;53.03;101165.00;117529;1182;23560;-83
2021/08/13 04:55:18;;;;;;;10.90;5.60;;;;;;;22.47;52.77;101167.31;117629;1185;23796;-82
2021/08/13 04:57:47;;;;;;;9.10;5.20;;;;;;;22.58;52.63;101167.29;117580;1185;21856;-83
2021/08/13 05:00:15;;;;;;;8.60;5.00;;;;;;;22.73;52.34;101169.23;117568;1185;21861;-83
2021/08/13 05:02:44;;;;;;;11.30;5.10;;;;;;;22.87;52.22;101164.96;117528;1184;22529;-81
2021/08/13 05:05:12;;;;;;;8.30;4.80;;;;;;;23.03;51.81;101167.52;117301;1186;22647;-81
2021/08/13 05:07:40;;;;;;;12.80;5.60;;;;;;;23.19;51.64;101169.40;117495;1185;21855;-81
2021/08/13 05:10:11;;;;;;;6.90;4.40;;;;;;;23.31;51.58;101174.54;117415;1181;23550;-82
2021/08/13 05:12:39;;;;;;;8.40;4.80;;;;;;;23.50;50.96;101174.40;117556;1182;21949;-82
2021/08/13 05:15:09;;;;;;;8.90;5.10;;;;;;;23.67;50.45;101175.13;117570;1185;22929;-81
2021/08/13 05:17:37;;;;;;;11.70;4.90;;;;;;;23.85;50.17;101176.23;117630;1185;21858;-81
2021/08/13 05:20:25;;;;;;;10.20;5.20;;;;;;;24.02;49.89;101176.77;117546;1185;21846;-81
2021/08/13 05:22:54;;;;;;;7.70;4.70;;;;;;;24.19;49.49;101179.22;117572;1185;23536;-82
2021/08/13 05:25:22;;;;;;;7.30;4.80;;;;;;;24.36;48.98;101183.48;117587;1176;21853;-81
2021/08/13 05:27:51;;;;;;;8.30;4.50;;;;;;;24.48;48.52;101181.33;117451;1187;22151;-82
2021/08/13 05:30:20;;;;;;;9.30;4.80;;;;;;;24.57;48.20;101179.93;117560;1185;21866;-81
2021/08/13 05:32:49;;;;;;;7.30;4.30;;;;;;;24.69;48.04;101182.67;117663;1182;23560;-83
2021/08/13 05:35:18;;;;;;;9.40;4.30;;;;;;;24.83;47.84;101184.53;117558;1185;23540;-83
2021/08/13 05:37:48;;;;;;;9.00;4.80;;;;;;;24.97;47.63;101185.70;117384;1186;23656;-82
2021/08/13 05:40:17;;;;;;;8.30;4.70;;;;;;;25.09;47.28;101187.82;117535;1185;21881;-83
2021/08/13 05:42:45;;;;;;;8.00;5.00;;;;;;;25.13;47.38;101190.11;117588;1185;21852;-82
2021/08/13 05:45:13;;;;;;;9.20;4.80;;;;;;;25.20;47.23;101191.66;117568;1182;21909;-83
2021/08/13 05:47:41;;;;;;;7.90;4.80;;;;;;;25.36;46.95;101193.16;117551;1185;21858;-83
2021/08/13 05:50:10;;;;;;;7.90;4.20;;;;;;;25.51;46.87;101190.14;117523;1185;21868;-83
2021/08/13 05:52:40;;;;;;;8.30;5.10;;;;;;;25.64;46.55;101187.02;117603;1182;23550;-83
2021/08/13 05:55:09;;;;;;;8.40;4.60;;;;;;;25.76;46.42;101187.84;117550;1185;21854;-82
2021/08/13 05:57:37;;;;;;;7.20;4.50;;;;;;;25.96;46.28;101190.02;117520;1185;22219;-82
2021/08/13 06:00:06;;;;;;;9.60;4.50;;;;;;;26.14;45.62;101188.00;117527;1185;21869;-82
2021/08/13 06:02:35;;;;;;;7.70;4.50;;;;;;;26.29;45.33;101187.92;117511;1185;21951;-82
2021/08/13 06:05:04;;;;;;;7.10;4.20;;;;;;;26.43;45.13;101188.24;117564;1182;21868;-81
2021/08/13 06:07:52;;;;;;;7.80;4.20;;;;;;;26.62;44.49;101191.50;117533;1185;22197;-82
2021/08/13 06:10:23;;;;;;;6.90;3.50;;;;;;;26.74;44.09;101193.55;117477;1178;21878;-82
2021/08/13 06:12:51;;;;;;;7.20;3.90;;;;;;;26.84;43.98;101194.02;117563;1185;23618;-81
2021/08/13 06:15:20;;;;;;;7.50;4.00;;;;;;;26.96;43.80;101193.90;117565;1182;23530;-82
2021/08/13 06:17:49;;;;;;;6.80;4.10;;;;;;;27.12;43.64;101196.24;117575;1182;21858;-83
2021/08/13 06:20:38;;;;;;;6.00;3.80;;;;;;;27.33;43.80;101192.64;117569;1184;21858;-83
2021/08/13 06:23:06;;;;;;;6.30;4.10;;;;;;;27.54;43.69;101192.60;117545;1185;22235;-82
2021/08/13 06:25:51;;;;;;;5.80;3.60;;;;;;;27.81;43.24;101189.59;117564;1185;22425;-82
2021/08/13 06:28:19;;;;;;;6.90;4.10;;;;;;;28.07;42.65;101190.44;117421;1185;22145;-84
2021/08/13 06:30:47;;;;;;;8.70;4.00;;;;;;;28.32;42.09;101189.74;117625;1182;23592;-83
2021/08/13 06:33:16;;;;;;;5.20;3.90;;;;;;;28.65;41.59;101191.73;117533;1182;26006;-83
2021/08/13 06:35:46;;;;;;;6.90;4.00;;;;;;;28.92;40.67;101188.26;117381;1179;23483;-83
2021/08/13 06:38:14;;;;;;;;;;;;;;;29.16;40.53;101189.34;117524;1176;21842;-83
2021/08/13 06:40:42;;;;;;;4.90;3.50;;;;;;;29.34;40.05;101191.74;117528;1185;22253;-84
2021/08/13 06:43:10;;;;;;;5.80;3.80;;;;;;;29.44;39.62;101194.41;117497;1176;23433;-83
2021/08/13 06:45:39;;;;;;;8.90;5.30;;;;;;;29.50;39.40;101193.52;117510;1182;23541;-82
2021/08/13 06:48:08;;;;;;;14.20;4.20;;;;;;;29.69;39.20;101193.46;117591;1185;23579;-89
2021/08/13 06:50:36;;;;;;;10.70;4.20;;;;;;;29.80;38.76;101191.66;117362;1185;21870;-89
2021/08/13 06:53:04;;;;;;;6.60;3.80;;;;;;;29.93;38.65;101192.48;117532;1185;22329;-87
2021/08/13 06:55:33;;;;;;;5.60;3.70;;;;;;;30.03;38.24;101196.17;117523;1185;23542;-88
2021/08/13 06:58:03;;;;;;;7.80;4.00;;;;;;;30.04;38.22;101195.21;117554;1185;23559;-88
2021/08/13 07:00:33;;;;;;;6.70;4.40;;;;;;;30.28;38.36;101192.13;117584;1182;23100;-89
2021/08/13 07:03:02;;;;;;;5.90;3.40;;;;;;;30.59;37.31;101192.31;117486;1185;23539;-89
2021/08/13 07:05:31;;;;;;;6.20;3.50;;;;;;;30.87;36.81;101189.41;117728;1185;23057;-88
2021/08/13 07:08:06;;;;;;;5.70;3.30;;;;;;;31.02;36.21;101189.58;117620;1185;21905;-88
2021/08/13 07:10:35;;;;;;;5.00;2.90;;;;;;;31.06;35.56;101191.23;117627;1184;22999;-90
2021/08/13 07:13:04;;;;;;;8.80;4.00;;;;;;;31.06;35.77;101191.61;117588;1185;22804;-85
2021/08/13 07:15:33;;;;;;;5.40;3.30;;;;;;;31.16;35.61;101189.46;117562;1182;22960;-87
2021/08/13 07:18:01;;;;;;;4.60;2.70;;;;;;;31.28;35.27;101184.45;117515;1185;21858;-88
2021/08/13 07:20:46;;;;;;;4.30;2.80;;;;;;;31.48;35.04;101186.52;117520;1182;22298;-89
2021/08/13 07:23:15;;;;;;;6.80;3.70;;;;;;;31.76;34.61;101186.66;117589;1185;23528;-88
2021/08/13 07:25:43;;;;;;;6.70;3.00;;;;;;;32.05;34.61;101188.16;117612;1185;22325;-88
2021/08/13 07:28:11;;;;;;;6.20;3.10;;;;;;;32.29;33.94;101190.05;117436;1185;23560;-88
2021/08/13 07:30:39;;;;;;;9.30;3.20;;;;;;;32.43;32.87;101187.45;117551;1182;23455;-88
2021/08/13 07:33:08;;;;;;;5.50;2.50;;;;;;;32.50;32.60;101188.80;117456;1180;22810;-90
2021/08/13 07:35:37;;;;;;;5.90;3.40;;;;;;;32.59;32.74;101189.05;117487;1179;22966;-89
2021/08/13 07:38:05;;;;;;;6.90;3.00;;;;;;;32.74;32.44;101189.68;117436;1185;21854;-88
2021/08/13 07:40:33;;;;;;;3.60;2.30;;;;;;;32.99;32.26;101188.28;117550;1185;23455;-88
2021/08/13 07:43:02;;;;;;;8.00;2.70;;;;;;;33.31;31.96;101189.56;117524;1185;23551;-87
2021/08/13 07:45:31;;;;;;;4.20;2.60;;;;;;;33.50;31.39;101189.12;117481;1183;22913;-88
2021/08/13 07:48:01;;;;;;;5.30;2.40;;;;;;;33.45;30.90;101189.73;117583;1185;23535;-87
2021/08/13 07:50:30;;;;;;;5.00;2.70;;;;;;;33.53;31.16;101190.65;117567;1185;23561;-87
2021/08/13 07:52:58;;;;;;;8.30;3.20;;;;;;;34.27;30.53;101189.85;117591;1182;21910;-88
2021/08/13 07:55:26;;;;;;;4.70;2.60;;;;;;;35.07;28.81;101186.55;117625;1182;23662;-89
2021/08/13 07:57:56;;;;;;;5.80;3.00;;;;;;;34.46;29.85;101187.31;117433;1178;23529;-89
2021/08/13 08:00:28;;;;;;;4.80;2.50;;;;;;;34.35;30.05;101187.15;117670;1185;23432;-89
2021/08/13 08:03:07;;;;;;;5.00;2.70;;;;;;;34.59;30.02;101183.83;117501;1178;23456;-91
2021/08/13 08:05:35;;;;;;;4.80;3.30;;;;;;;35.41;29.12;101176.98;117674;1185;21865;-87
2021/08/13 08:08:06;;;;;;;4.60;3.00;;;;;;;36.08;28.01;101176.30;117699;1183;23647;-89
2021/08/13 08:10:34;;;;;;;5.60;3.00;;;;;;;36.26;27.36;101177.26;117649;1182;21858;-88
2021/08/13 08:13:03;;;;;;;5.70;3.00;;;;;;;36.39;27.16;101176.34;117636;1182;23547;-88
2021/08/13 08:15:32;;;;;;;4.10;2.80;;;;;;;36.53;26.97;101171.75;117668;1183;22045;-88
2021/08/13 08:18:00;;;;;;;4.20;2.80;;;;;;;36.76;26.16;101173.60;117682;1182;22187;-89
2021/08/13 08:20:28;;;;;;;4.70;2.70;;;;;;;36.86;25.78;101174.10;117655;1185;21857;-89
2021/08/13 08:23:01;;;;;;;5.90;3.10;;;;;;;36.95;25.58;101175.34;117727;1185;23551;-90
2021/08/13 08:25:32;;;;;;;6.00;2.60;;;;;;;37.10;25.55;101171.77;117392;1184;21965;-91
2021/08/13 08:28:05;;;;;;;5.00;2.60;;;;;;;37.14;25.41;101171.56;117652;1182;23631;-90
2021/08/13 08:30:39;;;;;;;4.50;2.80;;;;;;;37.15;25.19;101173.99;117429;1179;22621;-87
2021/08/13 08:33:16;;;;;;;5.30;2.70;;;;;;;37.24;24.93;101169.55;117297;1187;22938;-87
2021/08/13 08:35:44;;;;;;;6.80;2.80;;;;;;;37.35;24.50;101170.81;117667;1185;22897;-87
2021/08/13 08:38:12;;;;;;;6.90;2.50;;;;;;;37.44;24.43;101171.70;117655;1183;21893;-87
2021/08/13 08:40:44;;;;;;;3.90;2.60;;;;;;;37.55;23.95;101173.51;117422;1185;21884;-86
2021/08/13 08:43:12;;;;;;;5.70;2.70;;;;;;;37.65;23.83;101174.53;117485;1185;21857;-87
2021/08/13 08:45:40;;;;;;;6.40;3.10;;;;;;;37.61;23.90;101173.14;117578;1182;21863;-85
2021/08/13 08:48:13;;;;;;;7.80;2.80;;;;;;;37.53;23.62;101174.66;117572;1185;22912;-86
2021/08/13 08:50:48;;;;;;;3.80;2.70;;;;;;;37.29;23.84;101174.89;117455;1186;21858;-87
2021/08/13 08:53:21;;;;;;;5.10;2.70;;;;;;;37.26;24.26;101173.84;117427;1183;23553;-86
2021/08/13 08:55:50;;;;;;;4.20;2.30;;;;;;;37.64;23.75;101168.89;117696;1185;22648;-87
2021/08/13 08:58:19;;;;;;;5.00;2.80;;;;;;;36.98;24.48;101170.26;117417;1187;22900;-88
2021/08/13 09:00:49;;;;;;;;;;;;;;;36.70;24.86;101170.20;117743;1182;22141;-85
2021/08/13 09:03:21;;;;;;;5.40;2.70;;;;;;;36.73;24.52;101172.11;117686;1185;21878;-89
2021/08/13 09:05:50;;;;;;;4.60;2.70;;;;;;;36.63;24.53;101173.80;117673;1185;22322;-88
2021/08/13 09:08:24;;;;;;;4.40;2.80;;;;;;;36.63;25.09;101172.38;117467;1186;22642;-86
2021/08/13 09:10:52;;;;;;;4.60;3.10;;;;;;;36.74;25.16;101171.95;117466;1185;22884;-88
2021/08/13 09:13:22;;;;;;;10.30;6.20;;;;;;;36.88;24.99;101172.23;117412;1185;21868;-86
2021/08/13 09:15:57;;;;;;;22.10;11.70;;;;;;;36.91;24.85;101170.15;117675;1182;23697;-87
2021/08/13 09:18:30;;;;;;;12.80;7.40;;;;;;;36.97;24.87;101169.98;117449;1184;23539;-89
2021/08/13 09:21:00;;;;;;;10.40;5.00;;;;;;;37.05;24.99;101171.66;117516;1185;22409;-86
2021/08/13 09:23:47;;;;;;;5.60;3.50;;;;;;;37.10;24.11;101171.17;117474;1185;21852;-86
2021/08/13 09:26:25;;;;;;;3.90;2.70;;;;;;;36.96;24.35;101174.20;117505;1184;23635;-88
2021/08/13 09:29:00;;;;;;;17.20;4.30;;;;;;;36.88;24.36;101173.59;117619;1185;21850;-87
2021/08/13 09:31:35;;;;;;;7.40;2.90;;;;;;;36.86;24.72;101178.35;117606;1182;22908;-87
2021/08/13 09:34:08;;;;;;;5.40;2.60;;;;;;;37.06;24.60;101175.77;117326;1187;21879;-87
2021/08/13 09:37:00;;;;;;;3.60;2.40;;;;;;;37.38;24.20;101173.66;117629;1182;21868;-88
2021/08/13 09:39:33;;;;;;;5.70;2.60;;;;;;;37.77;23.54;101175.20;117550;1185;22918;-89
2021/08/13 09:42:07;;;;;;;13.10;2.90;;;;;;;37.85;23.25;101172.48;117582;1184;21857;-87
2021/08/13 09:44:40;;;;;;;3.90;2.40;;;;;;;37.72;22.75;101173.25;117651;1182;21857;-87
2021/08/13 09:47:10;;;;;;;4.70;2.30;;;;;;;37.53;22.88;101175.80;117498;1186;21850;-88
2021/08/13 09:49:43;;;;;;;5.80;2.70;;;;;;;37.63;23.44;101179.05;117634;1182;21859;-86
2021/08/13 09:52:19;;;;;;;3.50;2.60;;;;;;;37.88;23.17;101173.53;117379;1183;23672;-86
2021/08/13 09:54:48;;;;;;;5.50;2.60;;;;;;;38.14;22.83;101169.10;117636;1185;22986;-88
2021/08/13 09:57:20;;;;;;;5.20;2.80;;;;;;;38.32;22.92;101168.93;117634;1185;23538;-88
2021/08/13 10:00:05;;;;;;;5.60;2.70;;;;;;;38.50;22.51;101177.09;117679;1185;21876;-87
2021/08/13 10:02:40;;;;;;;9.20;2.60;;;;;;;38.37;22.43;101177.92;117557;1185;23462;-87
2021/08/13 10:05:29;;;;;;;5.50;3.20;;;;;;;38.26;22.51;101175.33;117230;1186;21855;-89
2021/08/13 10:08:03;;;;;;;4.30;2.20;;;;;;;38.34;22.58;101169.85;117586;1185;22292;-87
2021/08/13 10:10:41;;;;;;;7.10;2.80;;;;;;;38.39;22.54;101174.54;117550;1185;23576;-88
2021/08/13 10:13:10;;;;;;;6.20;2.30;;;;;;;38.44;22.27;101178.59;117419;1186;21865;-88
2021/08/13 10:15:47;;;;;;;4.70;2.10;;;;;;;38.29;22.16;101167.48;117506;1186;21858;-87
2021/08/13 10:18:36;;;;;;;4.80;2.70;;;;;;;38.08;21.97;101168.55;117496;1185;22883;-86
2021/08/13 10:21:10;;;;;;;5.30;2.30;;;;;;;38.10;22.41;101167.37;117530;1184;23614;-91
2021/08/13 10:23:39;;;;;;;4.80;2.20;;;;;;;38.37;22.19;101171.83;117385;1183;22070;-90
2021/08/13 10:26:07;;;;;;;4.40;2.40;;;;;;;38.51;22.08;101168.23;117283;1177;22929;-90
2021/08/13 10:28:35;;;;;;;6.00;2.40;;;;;;;38.64;21.96;101168.79;117415;1182;23469;-90
2021/08/13 10:31:03;;;;;;;5.00;2.50;;;;;;;38.89;22.20;101164.38;117388;1182;21845;-89
2021/08/13 10:33:48;;;;;;;4.70;2.80;;;;;;;39.13;21.88;101157.53;117533;1181;22833;-88
2021/08/13 10:36:20;;;;;;;3.60;2.50;;;;;;;39.15;21.62;101161.08;117438;1186;21859;-88
2021/08/13 10:38:51;;;;;;;6.10;2.70;;;;;;;39.15;21.45;101161.05;117477;1186;23541;-88
2021/08/13 10:41:22;;;;;;;6.10;2.40;;;;;;;39.27;21.51;101155.08;117614;1185;21858;-90
2021/08/13 10:43:58;;;;;;;3.80;2.70;;;;;;;39.41;21.23;101154.41;117613;1185;22911;-88
2021/08/13 10:46:32;;;;;;;3.80;2.60;;;;;;;39.36;20.70;101149.75;117496;1188;21860;-86
2021/08/13 10:49:10;;;;;;;5.10;2.60;;;;;;;39.23;20.60;101151.43;117560;1185;22626;-89
2021/08/13 10:51:42;;;;;;;5.10;3.00;;;;;;;39.12;21.05;101155.34;117503;1182;23539;-86
2021/08/13 10:54:16;;;;;;;5.90;3.10;;;;;;;39.10;21.29;101155.64;117609;1185;22455;-88
2021/08/13 10:56:46;;;;;;;5.60;2.60;;;;;;;39.09;21.23;101154.99;117711;1185;21864;-89
2021/08/13 10:59:43;;;;;;;4.20;2.70;;;;;;;38.92;21.12;101154.14;117642;1184;23634;-88
2021/08/13 11:02:29;;;;;;;5.70;2.50;;;;;;;38.66;21.26;101152.30;117370;1184;21865;-87
2021/08/13 11:04:59;;;;;;;5.20;2.70;;;;;;;38.64;21.27;101147.93;117602;1185;21857;-86
2021/08/13 11:07:59;;;;;;;4.70;2.70;;;;;;;38.62;21.24;101149.34;117522;1178;23446;-88
2021/08/13 11:10:50;;;;;;;4.90;3.20;;;;;;;38.55;21.76;101140.77;117511;1184;22351;-91
2021/08/13 11:13:19;;;;;;;4.00;2.90;;;;;;;38.53;22.14;101139.89;117549;1185;21857;-88
2021/08/13 11:15:48;;;;;;;3.60;2.30;;;;;;;38.45;22.11;101145.16;117733;1182;22179;-86
2021/08/13 11:18:54;;;;;;;5.60;2.70;;;;;;;38.45;21.88;101151.84;117567;1185;21883;-88
2021/08/13 11:21:46;;;;;;;6.00;2.80;;;;;;;38.43;21.70;101155.58;117332;1188;21867;-87
2021/08/13 11:24:18;;;;;;;3.90;2.70;;;;;;;38.24;21.74;101145.42;117575;1185;22312;-88
2021/08/13 11:26:50;;;;;;;9.50;3.20;;;;;;;38.10;21.97;101147.17;117230;1184;23448;-89
2021/08/13 11:29:28;;;;;;;4.00;3.10;;;;;;;38.01;21.64;101151.94;117456;1185;23545;-87
2021/08/13 11:32:19;;;;;;;3.80;2.70;;;;;;;37.88;21.48;101149.58;117587;1185;23011;-90
2021/08/13 11:35:09;;;;;;;5.10;2.70;;;;;;;37.86;21.42;101147.41;117516;1186;21849;-89
2021/08/13 11:37:37;;;;;;;11.10;3.40;;;;;;;37.84;21.37;101144.95;117638;1185;21905;-87
2021/08/13 11:40:13;;;;;;;4.30;3.30;;;;;;;37.71;21.70;101144.43;117582;1182;21866;-88